Time,TemperatureF,DewpointF,PressureIn,WindDirection,WindDirectionDegrees,WindSpeedMPH,WindSpeedGustMPH,Humidity,HourlyPrecipIn,Conditions,Clouds,dailyrainin,SoftwareType,DateUTC
2013-08-28 00:02:00,71.8,69.3,29.85,NE,41,0.0,0.0,92,0.00,,CLR,0.00,VWS V14.01,2013-08-28 05:02:00,
2013-08-28 00:07:00,71.5,69.1,29.85,NE,41,0.0,0.0,92,0.00,,CLR,0.00,VWS V14.01,2013-08-28 05:07:00,
2013-08-28 00:12:00,71.4,69.3,29.85,NE,41,0.0,0.0,93,0.00,,CLR,0.00,VWS V14.01,2013-08-28 05:12:00,
2013-08-28 00:17:00,71.4,69.3,29.85,NE,41,0.0,0.0,93,0.00,,CLR,0.00,VWS V14.01,2013-08-28 05:17:00,
2013-08-28 00:22:00,71.3,69.2,29.85,NE,41,0.0,0.0,93,0.00,,CLR,0.00,VWS V14.01,2013-08-28 05:22:00,
2013-08-28 00:27:00,71.1,69.0,29.85,NE,41,0.0,0.0,93,0.00,,CLR,0.00,VWS V14.01,2013-08-28 05:27:00,
2013-08-28 00:32:00,70.8,68.7,29.85,NE,41,0.0,0.0,93,0.00,,CLR,0.00,VWS V14.01,2013-08-28 05:32:00,
2013-08-28 00:37:00,70.6,68.5,29.85,NE,41,0.0,0.0,93,0.00,,CLR,0.00,VWS V14.01,2013-08-28 05:37:00,
2013-08-28 00:42:00,70.5,68.7,29.85,NE,41,0.0,0.0,94,0.00,,CLR,0.00,VWS V14.01,2013-08-28 05:42:00,
2013-08-28 00:47:00,70.6,68.8,29.85,NE,41,0.0,0.0,94,0.00,,CLR,0.00,VWS V14.01,2013-08-28 05:47:00,
2013-08-28 00:52:00,70.5,68.7,29.85,NE,41,0.0,0.0,94,0.00,,CLR,0.00,VWS V14.01,2013-08-28 05:52:00,
2013-08-28 00:57:00,70.3,68.5,29.85,NE,41,0.0,0.0,94,0.00,,CLR,0.00,VWS V14.01,2013-08-28 05:57:00,
2013-08-28 01:02:00,70.2,68.4,29.86,NE,41,0.0,0.0,94,0.00,,CLR,0.00,VWS V14.01,2013-08-28 06:02:00,
2013-08-28 01:07:00,70.3,68.8,29.86,NE,56,0.0,2.0,95,0.00,,CLR,0.00,VWS V14.01,2013-08-28 06:07:00,
2013-08-28 01:12:00,70.5,68.7,29.85,ESE,104,0.0,2.0,94,0.00,,CLR,0.00,VWS V14.01,2013-08-28 06:12:00,
2013-08-28 01:17:00,70.4,68.6,29.86,ESE,104,0.0,2.0,94,0.00,,CLR,0.00,VWS V14.01,2013-08-28 06:17:00,
2013-08-28 01:22:00,70.2,68.4,29.86,ESE,105,0.0,2.0,94,0.00,,CLR,0.00,VWS V14.01,2013-08-28 06:22:00,
2013-08-28 01:27:00,69.9,68.1,29.86,ESE,104,0.0,2.0,94,0.00,,CLR,0.00,VWS V14.01,2013-08-28 06:27:00,
2013-08-28 01:32:00,69.9,68.1,29.86,ESE,104,0.0,0.0,94,0.00,,CLR,0.00,VWS V14.01,2013-08-28 06:32:00,
2013-08-28 01:37:00,70.1,68.6,29.86,ESE,104,0.0,0.0,95,0.00,,CLR,0.00,VWS V14.01,2013-08-28 06:37:00,
2013-08-28 01:42:00,69.9,68.1,29.86,ESE,104,0.0,0.0,94,0.00,,CLR,0.00,VWS V14.01,2013-08-28 06:42:00,
2013-08-28 01:47:00,69.7,67.9,29.86,ESE,104,0.0,0.0,94,0.00,,CLR,0.00,VWS V14.01,2013-08-28 06:47:00,
2013-08-28 01:52:00,69.7,68.2,29.86,ESE,104,0.0,1.0,95,0.00,,CLR,0.00,VWS V14.01,2013-08-28 06:52:00,
2013-08-28 01:57:00,69.8,68.3,29.86,WNW,301,0.0,1.0,95,0.00,,CLR,0.00,VWS V14.01,2013-08-28 06:57:00,
2013-08-28 02:02:00,70.0,68.5,29.86,ENE,72,0.0,2.0,95,0.00,,CLR,0.00,VWS V14.01,2013-08-28 07:02:00,
2013-08-28 02:07:00,70.0,68.5,29.87,ENE,72,0.0,2.0,95,0.00,,CLR,0.00,VWS V14.01,2013-08-28 07:07:00,
2013-08-28 02:12:00,69.8,68.3,29.87,ENE,72,0.0,2.0,95,0.00,,CLR,0.00,VWS V14.01,2013-08-28 07:12:00,
2013-08-28 02:17:00,69.7,68.2,29.87,ENE,72,0.0,2.0,95,0.00,,CLR,0.00,VWS V14.01,2013-08-28 07:17:00,
2013-08-28 02:22:00,69.8,68.3,29.87,ENE,73,0.0,2.0,95,0.00,,CLR,0.00,VWS V14.01,2013-08-28 07:22:00,
2013-08-28 02:27:00,69.7,68.2,29.86,NNW,330,0.0,2.0,95,0.00,,CLR,0.00,VWS V14.01,2013-08-28 07:27:00,
2013-08-28 02:32:00,69.8,68.3,29.86,North,1,0.0,1.0,95,0.00,,CLR,0.00,VWS V14.01,2013-08-28 07:32:00,
2013-08-28 02:37:00,69.7,68.2,29.86,East,79,0.0,1.0,95,0.00,,CLR,0.00,VWS V14.01,2013-08-28 07:37:00,
2013-08-28 02:42:00,69.7,68.2,29.86,ESE,109,0.0,2.0,95,0.00,,CLR,0.00,VWS V14.01,2013-08-28 07:42:00,
2013-08-28 02:47:00,69.6,68.1,29.86,ESE,109,0.0,2.0,95,0.00,,CLR,0.00,VWS V14.01,2013-08-28 07:47:00,
2013-08-28 02:52:00,69.4,67.9,29.86,East,95,0.0,2.0,95,0.00,,CLR,0.00,VWS V14.01,2013-08-28 07:52:00,
2013-08-28 02:57:00,69.3,67.8,29.86,East,94,0.0,2.0,95,0.00,,CLR,0.00,VWS V14.01,2013-08-28 07:57:00,
2013-08-28 03:02:00,69.1,67.6,29.86,East,95,0.0,0.0,95,0.00,,CLR,0.00,VWS V14.01,2013-08-28 08:02:00,
2013-08-28 03:07:00,69.0,67.5,29.86,East,95,0.0,0.0,95,0.00,,CLR,0.00,VWS V14.01,2013-08-28 08:07:00,
2013-08-28 03:12:00,68.9,67.7,29.86,East,95,0.0,0.0,96,0.00,,CLR,0.00,VWS V14.01,2013-08-28 08:12:00,
2013-08-28 03:17:00,68.8,67.6,29.86,East,95,0.0,0.0,96,0.00,,CLR,0.00,VWS V14.01,2013-08-28 08:17:00,
2013-08-28 03:22:00,68.8,67.6,29.86,East,95,0.0,0.0,96,0.00,,CLR,0.00,VWS V14.01,2013-08-28 08:22:00,
2013-08-28 03:27:00,68.6,67.4,29.86,East,95,0.0,0.0,96,0.00,,CLR,0.00,VWS V14.01,2013-08-28 08:27:00,
2013-08-28 03:32:00,68.6,67.4,29.87,East,95,0.0,0.0,96,0.00,,CLR,0.00,VWS V14.01,2013-08-28 08:32:00,
2013-08-28 03:37:00,68.4,67.2,29.87,East,95,0.0,0.0,96,0.00,,CLR,0.00,VWS V14.01,2013-08-28 08:37:00,
2013-08-28 03:42:00,68.3,67.1,29.87,ENE,67,0.0,1.0,96,0.00,,CLR,0.00,VWS V14.01,2013-08-28 08:42:00,
2013-08-28 03:47:00,68.2,67.0,29.87,ENE,67,0.0,1.0,96,0.00,,CLR,0.00,VWS V14.01,2013-08-28 08:47:00,
2013-08-28 03:52:00,68.1,66.9,29.87,ENE,67,0.0,1.0,96,0.00,,CLR,0.00,VWS V14.01,2013-08-28 08:52:00,
2013-08-28 03:57:00,68.1,66.9,29.87,ENE,66,0.0,1.0,96,0.00,,CLR,0.00,VWS V14.01,2013-08-28 08:57:00,
2013-08-28 04:02:00,68.0,67.1,29.87,ENE,67,0.0,0.0,97,0.00,,CLR,0.00,VWS V14.01,2013-08-28 09:02:00,
2013-08-28 04:07:00,68.0,67.1,29.87,ENE,67,0.0,0.0,97,0.00,,CLR,0.00,VWS V14.01,2013-08-28 09:07:00,
2013-08-28 04:12:00,67.9,67.0,29.87,ENE,67,0.0,0.0,97,0.00,,CLR,0.00,VWS V14.01,2013-08-28 09:12:00,
2013-08-28 04:17:00,67.9,67.0,29.87,East,82,0.0,1.0,97,0.00,,CLR,0.00,VWS V14.01,2013-08-28 09:17:00,
2013-08-28 04:22:00,67.7,66.8,29.87,East,82,0.0,1.0,97,0.00,,CLR,0.00,VWS V14.01,2013-08-28 09:22:00,
2013-08-28 04:27:00,67.7,66.8,29.87,East,82,0.0,1.0,97,0.00,,CLR,0.00,VWS V14.01,2013-08-28 09:27:00,
2013-08-28 04:32:00,67.6,66.7,29.88,East,82,0.0,0.0,97,0.00,,CLR,0.00,VWS V14.01,2013-08-28 09:32:00,
2013-08-28 04:34:00,67.6,66.7,29.88,East,82,0.0,0.0,97,0.00,,CLR,0.00,VWS V14.01,2013-08-28 09:34:00,
2013-08-28 04:39:00,67.6,66.7,29.87,East,82,0.0,0.0,97,0.00,,CLR,0.00,VWS V14.01,2013-08-28 09:39:00,
2013-08-28 04:44:00,67.6,66.7,29.87,East,82,0.0,0.0,97,0.00,,CLR,0.00,VWS V14.01,2013-08-28 09:44:00,
2013-08-28 04:49:00,67.7,66.8,29.88,East,82,0.0,0.0,97,0.00,,,0.00,VWS V14.01,2013-08-28 09:49:00,
2013-08-28 04:54:00,67.7,66.8,29.88,East,82,0.0,0.0,97,0.00,,,0.00,VWS V14.01,2013-08-28 09:54:00,
2013-08-28 04:59:00,67.7,66.8,29.88,East,82,0.0,0.0,97,0.00,,,0.00,VWS V14.01,2013-08-28 09:59:00,
2013-08-28 05:04:00,67.7,66.8,29.88,East,82,0.0,0.0,97,0.00,,,0.00,VWS V14.01,2013-08-28 10:04:00,
2013-08-28 05:09:00,67.7,66.8,29.88,East,82,0.0,0.0,97,0.00,,,0.00,VWS V14.01,2013-08-28 10:09:00,
2013-08-28 05:14:00,67.5,66.6,29.88,East,82,0.0,0.0,97,0.00,,,0.00,VWS V14.01,2013-08-28 10:14:00,
2013-08-28 05:19:00,67.5,66.6,29.88,East,82,0.0,0.0,97,0.00,,,0.00,VWS V14.01,2013-08-28 10:19:00,
2013-08-28 05:24:00,67.5,66.6,29.88,East,82,0.0,0.0,97,0.00,,,0.00,VWS V14.01,2013-08-28 10:24:00,
2013-08-28 05:29:00,67.5,66.6,29.88,East,82,0.0,0.0,97,0.00,,,0.00,VWS V14.01,2013-08-28 10:29:00,
2013-08-28 05:34:00,67.5,66.6,29.88,East,95,0.0,0.0,97,0.00,,SCT120,0.00,VWS V14.01,2013-08-28 10:34:00,
2013-08-28 05:39:00,67.5,66.6,29.88,East,96,0.0,2.0,97,0.00,,SCT120,0.00,VWS V14.01,2013-08-28 10:39:00,
2013-08-28 05:44:00,67.5,66.6,29.89,East,96,0.0,2.0,97,0.00,,SCT120,0.00,VWS V14.01,2013-08-28 10:44:00,
2013-08-28 05:49:00,67.4,66.5,29.89,East,100,0.0,2.0,97,0.00,,,0.00,VWS V14.01,2013-08-28 10:49:00,
2013-08-28 05:54:00,67.3,66.4,29.89,ESE,103,0.0,2.0,97,0.00,,,0.00,VWS V14.01,2013-08-28 10:54:00,
2013-08-28 05:59:00,67.3,66.4,29.89,East,96,0.0,1.0,97,0.00,,,0.00,VWS V14.01,2013-08-28 10:59:00,
2013-08-28 06:04:00,67.2,66.3,29.89,East,97,0.0,1.0,97,0.00,,,0.00,VWS V14.01,2013-08-28 11:04:00,
2013-08-28 06:09:00,67.0,66.1,29.90,East,97,0.0,1.0,97,0.00,,,0.00,VWS V14.01,2013-08-28 11:09:00,
2013-08-28 06:14:00,66.9,66.0,29.90,East,97,0.0,1.0,97,0.00,,,0.00,VWS V14.01,2013-08-28 11:14:00,
2013-08-28 06:19:00,66.8,65.9,29.90,East,97,0.0,1.0,97,0.00,,,0.00,VWS V14.01,2013-08-28 11:19:00,
2013-08-28 06:24:00,66.7,65.8,29.90,East,98,0.0,1.0,97,0.00,,,0.00,VWS V14.01,2013-08-28 11:24:00,
2013-08-28 06:29:00,66.6,65.7,29.90,East,98,0.0,0.0,97,0.00,,,0.00,VWS V14.01,2013-08-28 11:29:00,
2013-08-28 06:34:00,66.5,65.9,29.90,East,97,0.0,0.0,98,0.00,,SCT001,0.00,VWS V14.01,2013-08-28 11:34:00,
2013-08-28 06:39:00,66.5,65.9,29.90,East,80,0.0,1.0,98,0.00,,SCT001,0.00,VWS V14.01,2013-08-28 11:39:00,
2013-08-28 06:44:00,66.5,65.9,29.90,East,90,0.0,1.0,98,0.00,,SCT001,0.00,VWS V14.01,2013-08-28 11:44:00,
2013-08-28 06:49:00,66.5,65.9,29.91,East,92,0.0,1.0,98,0.00,,CLR,0.00,VWS V14.01,2013-08-28 11:49:00,
2013-08-28 06:54:00,66.5,65.9,29.91,East,92,0.0,1.0,98,0.00,,CLR,0.00,VWS V14.01,2013-08-28 11:54:00,
2013-08-28 06:59:00,66.4,65.8,29.91,ENE,65,1.0,2.0,98,0.00,,CLR,0.00,VWS V14.01,2013-08-28 11:59:00,
2013-08-28 07:04:00,66.4,65.8,29.91,East,82,0.0,2.0,98,0.00,,CLR,0.00,VWS V14.01,2013-08-28 12:04:00,
2013-08-28 07:09:00,66.4,65.8,29.91,East,82,0.0,2.0,98,0.00,,CLR,0.00,VWS V14.01,2013-08-28 12:09:00,
2013-08-28 07:14:00,66.4,65.8,29.92,ENE,78,0.0,2.0,98,0.00,,CLR,0.00,VWS V14.01,2013-08-28 12:14:00,
2013-08-28 07:19:00,66.3,65.7,29.92,ENE,77,0.0,2.0,98,0.00,,CLR,0.00,VWS V14.01,2013-08-28 12:19:00,
2013-08-28 07:24:00,66.4,65.8,29.92,ENE,77,0.0,2.0,98,0.00,,CLR,0.00,VWS V14.01,2013-08-28 12:24:00,
2013-08-28 07:29:00,66.4,65.8,29.92,ENE,77,0.0,0.0,98,0.00,,CLR,0.00,VWS V14.01,2013-08-28 12:29:00,
2013-08-28 07:33:00,66.5,65.9,29.92,ENE,77,0.0,0.0,98,0.00,,CLR,0.00,VWS V14.01,2013-08-28 12:33:00,
2013-08-28 07:39:00,66.9,66.3,29.92,East,95,0.0,3.0,98,0.00,,CLR,0.00,VWS V14.01,2013-08-28 12:39:00,
2013-08-28 07:43:00,67.3,66.7,29.92,East,95,3.0,3.0,98,0.00,,CLR,0.00,VWS V14.01,2013-08-28 12:43:00,
2013-08-28 07:48:00,67.4,66.8,29.93,ENE,71,1.0,3.0,98,0.00,,SCT001,0.00,VWS V14.01,2013-08-28 12:48:00,
2013-08-28 07:53:00,67.5,66.9,29.93,East,82,0.0,3.0,98,0.00,,SCT001,0.00,VWS V14.01,2013-08-28 12:53:00,
2013-08-28 07:58:00,67.5,66.9,29.93,East,82,0.0,0.0,98,0.00,,SCT001,0.00,VWS V14.01,2013-08-28 12:58:00,
2013-08-28 08:03:00,67.5,66.9,29.93,East,82,0.0,1.0,98,0.00,,SCT001,0.00,VWS V14.01,2013-08-28 13:03:00,
2013-08-28 08:08:00,67.6,67.0,29.94,East,82,0.0,1.0,98,0.00,,SCT001,0.00,VWS V14.01,2013-08-28 13:08:00,
2013-08-28 08:13:00,67.6,67.0,29.94,East,82,0.0,1.0,98,0.00,,SCT001,0.00,VWS V14.01,2013-08-28 13:13:00,
2013-08-28 08:18:00,67.6,67.0,29.93,East,82,0.0,1.0,98,0.00,,SCT001,0.00,VWS V14.01,2013-08-28 13:18:00,
2013-08-28 08:23:00,67.7,67.1,29.93,ENE,68,1.0,3.0,98,0.00,,SCT001,0.00,VWS V14.01,2013-08-28 13:23:00,
2013-08-28 08:28:00,67.7,67.1,29.93,ENE,71,0.0,0.0,98,0.00,,SCT001,0.00,VWS V14.01,2013-08-28 13:28:00,
2013-08-28 08:33:00,67.9,67.3,29.93,ENE,71,0.0,0.0,98,0.00,,SCT001,0.00,VWS V14.01,2013-08-28 13:33:00,
2013-08-28 08:38:00,68.0,67.4,29.93,ENE,73,0.0,1.0,98,0.00,,SCT001,0.00,VWS V14.01,2013-08-28 13:38:00,
2013-08-28 08:43:00,68.0,67.4,29.92,East,84,3.0,5.0,98,0.00,,SCT001,0.00,VWS V14.01,2013-08-28 13:43:00,
2013-08-28 08:48:00,68.0,67.4,29.92,East,90,4.0,5.0,98,0.00,,CLR,0.00,VWS V14.01,2013-08-28 13:48:00,
2013-08-28 08:53:00,68.1,67.5,29.92,ENE,75,4.0,8.0,98,0.00,,CLR,0.00,VWS V14.01,2013-08-28 13:53:00,
2013-08-28 08:58:00,68.4,67.8,29.92,East,89,3.0,5.0,98,0.00,,CLR,0.00,VWS V14.01,2013-08-28 13:58:00,
2013-08-28 09:03:00,68.8,68.2,29.92,East,94,4.0,5.0,98,0.00,,CLR,0.00,VWS V14.01,2013-08-28 14:03:00,
2013-08-28 09:08:00,69.3,68.7,29.92,ENE,76,1.0,5.0,98,0.00,,CLR,0.00,VWS V14.01,2013-08-28 14:08:00,
2013-08-28 09:13:00,70.2,69.6,29.93,East,90,1.0,5.0,98,0.00,,CLR,0.00,VWS V14.01,2013-08-28 14:13:00,
2013-08-28 09:18:00,71.2,70.6,29.93,ENE,71,0.0,5.0,98,0.00,,CLR,0.00,VWS V14.01,2013-08-28 14:18:00,
2013-08-28 09:23:00,71.6,70.4,29.93,North,1,0.0,5.0,96,0.00,,CLR,0.00,VWS V14.01,2013-08-28 14:23:00,
2013-08-28 09:28:00,72.1,70.6,29.94,North,1,0.0,0.0,95,0.00,,CLR,0.00,VWS V14.01,2013-08-28 14:28:00,
2013-08-28 09:33:00,72.6,70.8,29.94,West,270,0.0,1.0,94,0.00,,CLR,0.00,VWS V14.01,2013-08-28 14:33:00,
2013-08-28 09:38:00,73.3,71.5,29.94,East,82,0.0,1.0,94,0.00,,CLR,0.00,VWS V14.01,2013-08-28 14:38:00,
2013-08-28 09:43:00,74.2,71.4,29.94,East,85,2.0,3.0,91,0.00,,CLR,0.00,VWS V14.01,2013-08-28 14:43:00,
2013-08-28 09:48:00,74.5,71.4,29.94,East,96,1.0,3.0,90,0.00,,CLR,0.00,VWS V14.01,2013-08-28 14:48:00,
2013-08-28 09:53:00,75.5,72.0,29.94,East,96,4.0,4.0,89,0.00,,CLR,0.00,VWS V14.01,2013-08-28 14:53:00,
2013-08-28 09:58:00,76.4,72.2,29.94,ENE,75,4.0,4.0,87,0.00,,CLR,0.00,VWS V14.01,2013-08-28 14:58:00,
2013-08-28 10:03:00,76.7,72.2,29.94,ESE,113,1.0,4.0,86,0.00,,CLR,0.00,VWS V14.01,2013-08-28 15:03:00,
2013-08-28 10:08:00,77.6,72.7,29.94,ESE,117,0.0,4.0,85,0.00,,CLR,0.00,VWS V14.01,2013-08-28 15:08:00,
2013-08-28 10:13:00,77.9,72.3,29.94,East,79,2.0,4.0,83,0.00,,CLR,0.00,VWS V14.01,2013-08-28 15:13:00,
2013-08-28 10:18:00,78.4,72.8,29.94,ENE,67,2.0,4.0,83,0.00,,CLR,0.00,VWS V14.01,2013-08-28 15:18:00,
2013-08-28 10:23:00,79.0,73.0,29.94,ESE,117,2.0,5.0,82,0.00,,CLR,0.00,VWS V14.01,2013-08-28 15:23:00,
2013-08-28 10:28:00,79.2,72.5,29.94,ESE,111,2.0,4.0,80,0.00,,CLR,0.00,VWS V14.01,2013-08-28 15:28:00,
2013-08-28 10:33:00,79.7,72.6,29.94,ENE,72,1.0,8.0,79,0.00,,CLR,0.00,VWS V14.01,2013-08-28 15:33:00,
2013-08-28 10:38:00,80.1,72.6,29.94,East,96,2.0,8.0,78,0.00,,CLR,0.00,VWS V14.01,2013-08-28 15:38:00,
2013-08-28 10:43:00,80.2,73.1,29.94,ENE,78,5.0,8.0,79,0.00,,CLR,0.00,VWS V14.01,2013-08-28 15:43:00,
2013-08-28 10:48:00,80.1,73.0,29.95,ESE,104,1.0,8.0,79,0.00,,CLR,0.00,VWS V14.01,2013-08-28 15:48:00,
2013-08-28 10:53:00,80.3,72.4,29.95,ESE,120,1.0,8.0,77,0.00,,CLR,0.00,VWS V14.01,2013-08-28 15:53:00,
2013-08-28 10:58:00,80.3,71.7,29.95,East,79,2.0,5.0,75,0.00,,CLR,0.00,VWS V14.01,2013-08-28 15:58:00,
2013-08-28 11:03:00,80.5,72.2,29.95,ENE,77,6.0,7.0,76,0.00,,CLR,0.00,VWS V14.01,2013-08-28 16:03:00,
2013-08-28 11:08:00,80.4,72.2,29.95,East,82,2.0,7.0,76,0.00,,CLR,0.00,VWS V14.01,2013-08-28 16:08:00,
2013-08-28 11:13:00,80.8,72.5,29.95,East,95,0.0,7.0,76,0.00,,CLR,0.00,VWS V14.01,2013-08-28 16:13:00,
2013-08-28 11:18:00,81.6,72.5,29.95,ESE,118,2.0,7.0,74,0.00,,CLR,0.00,VWS V14.01,2013-08-28 16:18:00,
2013-08-28 11:23:00,82.1,70.5,29.95,ESE,105,2.0,7.0,68,0.00,,CLR,0.00,VWS V14.01,2013-08-28 16:23:00,
2013-08-28 11:28:00,82.5,70.4,29.95,East,90,4.0,4.0,67,0.00,,CLR,0.00,VWS V14.01,2013-08-28 16:28:00,
2013-08-28 11:33:00,82.6,70.1,29.95,East,81,4.0,8.0,66,0.00,,CLR,0.00,VWS V14.01,2013-08-28 16:33:00,
2013-08-28 11:38:00,82.5,70.4,29.95,ENE,75,7.0,8.0,67,0.00,,CLR,0.00,VWS V14.01,2013-08-28 16:38:00,
2013-08-28 11:43:00,82.4,69.9,29.95,East,83,5.0,8.0,66,0.00,,CLR,0.00,VWS V14.01,2013-08-28 16:43:00,
2013-08-28 11:48:00,82.4,70.3,29.95,East,100,3.0,8.0,67,0.00,,CLR,0.00,VWS V14.01,2013-08-28 16:48:00,
2013-08-28 11:53:00,82.5,70.4,29.95,SE,140,0.0,8.0,67,0.00,,CLR,0.00,VWS V14.01,2013-08-28 16:53:00,
2013-08-28 11:58:00,83.2,71.1,29.95,SW,215,0.0,1.0,67,0.00,,CLR,0.00,VWS V14.01,2013-08-28 16:58:00,
2013-08-28 12:03:00,83.9,71.3,29.95,South,177,1.0,3.0,66,0.00,,CLR,0.00,VWS V14.01,2013-08-28 17:03:00,
2013-08-28 12:08:00,84.3,70.8,29.95,SSE,158,1.0,3.0,64,0.00,,CLR,0.00,VWS V14.01,2013-08-28 17:08:00,
2013-08-28 12:13:00,85.0,71.5,29.95,East,79,1.0,3.0,64,0.00,,CLR,0.00,VWS V14.01,2013-08-28 17:13:00,
2013-08-28 12:18:00,84.6,71.1,29.94,ENE,64,3.0,7.0,64,0.00,,CLR,0.00,VWS V14.01,2013-08-28 17:18:00,
2013-08-28 12:23:00,84.2,71.2,29.94,East,86,4.0,8.0,65,0.00,,CLR,0.00,VWS V14.01,2013-08-28 17:23:00,
2013-08-28 12:28:00,84.0,71.0,29.94,ENE,58,1.0,1.0,65,0.00,,CLR,0.00,VWS V14.01,2013-08-28 17:28:00,
2013-08-28 12:33:00,84.3,71.3,29.94,SE,128,1.0,7.0,65,0.00,,CLR,0.00,VWS V14.01,2013-08-28 17:33:00,
2013-08-28 12:38:00,84.9,70.4,29.93,East,98,7.0,7.0,62,0.00,,CLR,0.00,VWS V14.01,2013-08-28 17:38:00,
2013-08-28 12:43:00,84.4,70.0,29.93,East,87,1.0,8.0,62,0.00,,CLR,0.00,VWS V14.01,2013-08-28 17:43:00,
2013-08-28 12:48:00,84.9,69.0,29.93,ENE,66,7.0,10.0,59,0.00,,CLR,0.00,VWS V14.01,2013-08-28 17:48:00,
2013-08-28 12:53:00,84.8,69.4,29.93,ENE,67,6.0,10.0,60,0.00,,CLR,0.00,VWS V14.01,2013-08-28 17:53:00,
2013-08-28 12:58:00,84.8,69.9,29.93,East,96,4.0,6.0,61,0.00,,CLR,0.00,VWS V14.01,2013-08-28 17:58:00,
2013-08-28 13:03:00,85.4,69.9,29.93,East,92,1.0,7.0,60,0.00,,CLR,0.00,VWS V14.01,2013-08-28 18:03:00,
2013-08-28 13:08:00,86.2,70.2,29.93,NE,56,2.0,7.0,59,0.00,,CLR,0.00,VWS V14.01,2013-08-28 18:08:00,
2013-08-28 13:13:00,86.3,69.3,29.94,East,99,3.0,8.0,57,0.00,,CLR,0.00,VWS V14.01,2013-08-28 18:13:00,
2013-08-28 13:18:00,86.1,69.6,29.94,SSE,150,0.0,8.0,58,0.00,,CLR,0.00,VWS V14.01,2013-08-28 18:18:00,
2013-08-28 13:23:00,86.5,69.5,29.94,SE,128,2.0,8.0,57,0.00,,CLR,0.00,VWS V14.01,2013-08-28 18:23:00,
2013-08-28 13:28:00,86.1,67.0,29.95,ESE,112,1.0,4.0,53,0.00,,CLR,0.00,VWS V14.01,2013-08-28 18:28:00,
2013-08-28 13:33:00,86.1,68.6,29.95,ENE,74,4.0,8.0,56,0.00,,CLR,0.00,VWS V14.01,2013-08-28 18:33:00,
2013-08-28 13:38:00,86.0,66.3,29.95,ESE,103,3.0,9.0,52,0.00,,CLR,0.00,VWS V14.01,2013-08-28 18:38:00,
2013-08-28 13:43:00,86.2,66.5,29.94,ESE,108,4.0,9.0,52,0.00,,CLR,0.00,VWS V14.01,2013-08-28 18:43:00,
2013-08-28 13:48:00,86.1,65.9,29.94,East,99,4.0,9.0,51,0.00,,CLR,0.00,VWS V14.01,2013-08-28 18:48:00,
2013-08-28 13:53:00,86.4,66.2,29.94,NE,38,2.0,9.0,51,0.00,,CLR,0.00,VWS V14.01,2013-08-28 18:53:00,
2013-08-28 13:58:00,86.6,65.8,29.94,East,79,2.0,7.0,50,0.00,,CLR,0.00,VWS V14.01,2013-08-28 18:58:00,
2013-08-28 14:03:00,86.4,65.6,29.94,ENE,74,2.0,7.0,50,0.00,,CLR,0.00,VWS V14.01,2013-08-28 19:03:00,
2013-08-28 14:08:00,86.4,65.6,29.93,ESE,108,1.0,9.0,50,0.00,,CLR,0.00,VWS V14.01,2013-08-28 19:08:00,
2013-08-28 14:13:00,86.7,65.9,29.93,East,98,5.0,9.0,50,0.00,,CLR,0.00,VWS V14.01,2013-08-28 19:13:00,
2013-08-28 14:18:00,86.3,65.5,29.94,East,91,3.0,9.0,50,0.00,,CLR,0.00,VWS V14.01,2013-08-28 19:18:00,
2013-08-28 14:23:00,86.2,66.0,29.93,East,101,3.0,9.0,51,0.00,,CLR,0.00,VWS V14.01,2013-08-28 19:23:00,
2013-08-28 14:28:00,86.2,66.0,29.93,ENE,71,5.0,5.0,51,0.00,,CLR,0.00,VWS V14.01,2013-08-28 19:28:00,
2013-08-28 14:33:00,86.4,65.6,29.93,East,91,3.0,5.0,50,0.00,,CLR,0.00,VWS V14.01,2013-08-28 19:33:00,
2013-08-28 14:38:00,86.1,65.9,29.93,ESE,106,2.0,6.0,51,0.00,,CLR,0.00,VWS V14.01,2013-08-28 19:38:00,
2013-08-28 14:43:00,86.1,64.1,29.93,ESE,107,1.0,6.0,48,0.00,,CLR,0.00,VWS V14.01,2013-08-28 19:43:00,
2013-08-28 14:48:00,86.1,64.7,29.94,East,94,2.0,6.0,49,0.00,,CLR,0.00,VWS V14.01,2013-08-28 19:48:00,
2013-08-28 14:53:00,85.9,64.5,29.94,East,100,0.0,6.0,49,0.00,,CLR,0.00,VWS V14.01,2013-08-28 19:53:00,
2013-08-28 14:58:00,85.8,64.4,29.94,East,96,1.0,1.0,49,0.00,,CLR,0.00,VWS V14.01,2013-08-28 19:58:00,
2013-08-28 15:03:00,85.7,64.4,29.94,East,92,2.0,3.0,49,0.00,,CLR,0.00,VWS V14.01,2013-08-28 20:03:00,
2013-08-28 15:08:00,85.7,64.9,29.93,ESE,102,2.0,4.0,50,0.00,,CLR,0.00,VWS V14.01,2013-08-28 20:08:00,
2013-08-28 15:13:00,85.6,64.8,29.93,ENE,74,2.0,4.0,50,0.00,,CLR,0.00,VWS V14.01,2013-08-28 20:13:00,
2013-08-28 15:18:00,85.5,64.8,29.93,East,88,3.0,5.0,50,0.00,,CLR,0.00,VWS V14.01,2013-08-28 20:18:00,
2013-08-28 15:23:00,85.5,64.2,29.92,ESE,107,2.0,5.0,49,0.00,,CLR,0.00,VWS V14.01,2013-08-28 20:23:00,
2013-08-28 15:28:00,85.4,64.7,29.93,East,101,1.0,3.0,50,0.00,,CLR,0.00,VWS V14.01,2013-08-28 20:28:00,
2013-08-28 15:33:00,85.4,65.2,29.92,East,96,3.0,4.0,51,0.00,,CLR,0.00,VWS V14.01,2013-08-28 20:33:00,
2013-08-28 15:38:00,85.4,65.2,29.92,East,100,2.0,5.0,51,0.00,,CLR,0.00,VWS V14.01,2013-08-28 20:38:00,
2013-08-28 15:43:00,85.6,66.0,29.92,ESE,109,1.0,5.0,52,0.00,,CLR,0.00,VWS V14.01,2013-08-28 20:43:00,
2013-08-28 15:48:00,85.8,66.2,29.93,South,171,1.0,5.0,52,0.00,,CLR,0.00,VWS V14.01,2013-08-28 20:48:00,
2013-08-28 15:53:00,86.1,67.0,29.93,SE,134,0.0,5.0,53,0.00,,CLR,0.00,VWS V14.01,2013-08-28 20:53:00,
2013-08-28 15:58:00,86.4,66.2,29.93,East,101,1.0,1.0,51,0.00,,CLR,0.00,VWS V14.01,2013-08-28 20:58:00,
2013-08-28 16:03:00,86.5,65.1,29.93,South,191,0.0,1.0,49,0.00,,CLR,0.00,VWS V14.01,2013-08-28 21:03:00,
2013-08-28 16:08:00,86.5,64.5,29.93,SSE,154,0.0,1.0,48,0.00,,CLR,0.00,VWS V14.01,2013-08-28 21:08:00,
2013-08-28 16:13:00,86.3,64.3,29.92,ESE,103,2.0,3.0,48,0.00,,CLR,0.00,VWS V14.01,2013-08-28 21:13:00,
2013-08-28 16:18:00,86.1,65.3,29.92,East,94,4.0,4.0,50,0.00,,CLR,0.00,VWS V14.01,2013-08-28 21:18:00,
2013-08-28 16:23:00,85.8,65.0,29.91,East,87,5.0,6.0,50,0.00,,CLR,0.00,VWS V14.01,2013-08-28 21:23:00,
2013-08-28 16:28:00,85.3,65.7,29.91,East,98,5.0,5.0,52,0.00,,CLR,0.00,VWS V14.01,2013-08-28 21:28:00,
2013-08-28 16:33:00,85.0,65.4,29.91,ESE,103,4.0,6.0,52,0.00,,CLR,0.00,VWS V14.01,2013-08-28 21:33:00,
2013-08-28 16:38:00,84.8,65.2,29.91,ENE,73,5.0,6.0,52,0.00,,CLR,0.00,VWS V14.01,2013-08-28 21:38:00,
2013-08-28 16:43:00,84.7,65.7,29.91,ENE,75,1.0,6.0,53,0.00,,CLR,0.00,VWS V14.01,2013-08-28 21:43:00,
2013-08-28 16:48:00,84.4,65.4,29.92,East,82,2.0,6.0,53,0.00,,CLR,0.00,VWS V14.01,2013-08-28 21:48:00,
2013-08-28 16:53:00,84.3,65.3,29.92,ENE,70,0.0,6.0,53,0.00,,CLR,0.00,VWS V14.01,2013-08-28 21:53:00,
2013-08-28 16:58:00,84.3,65.9,29.92,ENE,70,0.0,0.0,54,0.00,,CLR,0.00,VWS V14.01,2013-08-28 21:58:00,
2013-08-28 17:03:00,84.2,65.8,29.92,ENE,70,0.0,1.0,54,0.00,,CLR,0.00,VWS V14.01,2013-08-28 22:03:00,
2013-08-28 17:08:00,84.2,66.8,29.93,ENE,70,0.0,1.0,56,0.00,,CLR,0.00,VWS V14.01,2013-08-28 22:08:00,
2013-08-28 17:13:00,84.0,66.6,29.93,ENE,70,0.0,1.0,56,0.00,,CLR,0.00,VWS V14.01,2013-08-28 22:13:00,
2013-08-28 17:18:00,83.7,66.3,29.93,ENE,70,0.0,1.0,56,0.00,,CLR,0.00,VWS V14.01,2013-08-28 22:18:00,
2013-08-28 17:23:00,83.5,66.2,29.92,East,89,3.0,3.0,56,0.00,,CLR,0.00,VWS V14.01,2013-08-28 22:23:00,
2013-08-28 17:28:00,83.3,65.5,29.92,East,96,2.0,3.0,55,0.00,,CLR,0.00,VWS V14.01,2013-08-28 22:28:00,
2013-08-28 17:33:00,83.2,65.4,29.92,ENE,77,4.0,4.0,55,0.00,,SCT120,0.00,VWS V14.01,2013-08-28 22:33:00,
2013-08-28 17:38:00,83.1,65.3,29.92,ENE,75,4.0,5.0,55,0.00,,SCT120,0.00,VWS V14.01,2013-08-28 22:38:00,
2013-08-28 17:43:00,82.9,65.1,29.92,ENE,77,5.0,6.0,55,0.00,,SCT120,0.00,VWS V14.01,2013-08-28 22:43:00,
2013-08-28 17:48:00,82.7,65.4,29.91,East,97,5.0,7.0,56,0.00,,BKN110,0.00,VWS V14.01,2013-08-28 22:48:00,
2013-08-28 17:53:00,82.5,64.7,29.91,East,100,6.0,8.0,55,0.00,,BKN110,0.00,VWS V14.01,2013-08-28 22:53:00,
2013-08-28 17:58:00,82.2,65.0,29.91,ESE,117,2.0,5.0,56,0.00,,BKN110,0.00,VWS V14.01,2013-08-28 22:58:00,
2013-08-28 18:03:00,82.3,65.6,29.91,SE,129,1.0,5.0,57,0.00,,BKN110,0.00,VWS V14.01,2013-08-28 23:03:00,
2013-08-28 18:08:00,82.1,65.9,29.91,SE,125,0.0,5.0,58,0.00,,BKN110,0.00,VWS V14.01,2013-08-28 23:08:00,
2013-08-28 18:13:00,82.0,65.8,29.90,ESE,109,2.0,5.0,58,0.00,,BKN110,0.00,VWS V14.01,2013-08-28 23:13:00,
2013-08-28 18:18:00,81.9,65.7,29.90,ESE,117,2.0,5.0,58,0.00,,BKN110,0.00,VWS V14.01,2013-08-28 23:18:00,
2013-08-28 18:23:00,81.8,65.1,29.90,ESE,122,2.0,5.0,57,0.00,,BKN110,0.00,VWS V14.01,2013-08-28 23:23:00,
2013-08-28 18:28:00,81.7,65.0,29.90,ESE,112,2.0,3.0,57,0.00,,BKN110,0.00,VWS V14.01,2013-08-28 23:28:00,
2013-08-28 18:33:00,81.6,64.9,29.90,ESE,123,1.0,4.0,57,0.00,,SCT120,0.00,VWS V14.01,2013-08-28 23:33:00,
2013-08-28 18:38:00,81.4,65.2,29.91,ENE,77,3.0,4.0,58,0.00,,SCT120,0.00,VWS V14.01,2013-08-28 23:38:00,
2013-08-28 18:43:00,81.2,65.5,29.91,East,79,3.0,4.0,59,0.00,,SCT120,0.00,VWS V14.01,2013-08-28 23:43:00,
2013-08-28 18:48:00,80.9,65.2,29.90,East,97,2.0,5.0,59,0.00,,OVC110,0.00,VWS V14.01,2013-08-28 23:48:00,
2013-08-28 18:53:00,80.8,65.2,29.91,ESE,103,0.0,5.0,59,0.00,,CLR,0.00,VWS V14.01,2013-08-28 23:53:00,
2013-08-28 18:58:00,80.8,65.2,29.91,East,92,2.0,2.0,59,0.00,,CLR,0.00,VWS V14.01,2013-08-28 23:58:00,
2013-08-28 19:03:00,80.8,65.2,29.91,East,91,1.0,2.0,59,0.00,,CLR,0.00,VWS V14.01,2013-08-29 00:03:00,
2013-08-28 19:08:00,80.7,65.1,29.91,East,93,0.0,2.0,59,0.00,,CLR,0.00,VWS V14.01,2013-08-29 00:08:00,
2013-08-28 19:13:00,80.7,65.1,29.91,SE,145,2.0,2.0,59,0.00,,CLR,0.00,VWS V14.01,2013-08-29 00:13:00,
2013-08-28 19:18:00,80.8,65.6,29.91,SE,125,2.0,3.0,60,0.00,,CLR,0.00,VWS V14.01,2013-08-29 00:18:00,
2013-08-28 19:23:00,80.8,65.6,29.91,SSE,155,1.0,3.0,60,0.00,,CLR,0.00,VWS V14.01,2013-08-29 00:23:00,
2013-08-28 19:28:00,80.8,66.1,29.91,SE,139,0.0,0.0,61,0.00,,CLR,0.00,VWS V14.01,2013-08-29 00:28:00,
2013-08-28 19:33:00,80.8,66.1,29.91,SE,134,0.0,1.0,61,0.00,,CLR,0.00,VWS V14.01,2013-08-29 00:33:00,
2013-08-28 19:38:00,80.8,66.1,29.91,SE,134,0.0,1.0,61,0.00,,CLR,0.00,VWS V14.01,2013-08-29 00:38:00,
2013-08-28 19:42:00,80.6,66.4,29.92,SSE,148,0.0,1.0,62,0.00,,CLR,0.00,VWS V14.01,2013-08-29 00:42:00,
2013-08-28 19:47:00,80.5,66.3,29.92,SSE,148,0.0,1.0,62,0.00,,CLR,0.00,VWS V14.01,2013-08-29 00:47:00,
2013-08-28 19:52:00,80.3,66.6,29.92,SSE,148,0.0,1.0,63,0.00,,CLR,0.00,VWS V14.01,2013-08-29 00:52:00,
2013-08-28 19:57:00,80.1,66.4,29.92,SSE,148,0.0,0.0,63,0.00,,CLR,0.00,VWS V14.01,2013-08-29 00:57:00,
2013-08-28 20:02:00,79.9,66.7,29.92,SSE,148,0.0,0.0,64,0.00,,CLR,0.00,VWS V14.01,2013-08-29 01:02:00,
2013-08-28 20:07:00,79.8,66.6,29.92,SSE,148,0.0,0.0,64,0.00,,CLR,0.00,VWS V14.01,2013-08-29 01:07:00,
2013-08-28 20:12:00,79.6,66.4,29.92,SSE,148,0.0,0.0,64,0.00,,CLR,0.00,VWS V14.01,2013-08-29 01:12:00,
2013-08-28 20:17:00,79.3,66.5,29.92,SSE,148,0.0,0.0,65,0.00,,CLR,0.00,VWS V14.01,2013-08-29 01:17:00,
2013-08-28 20:22:00,79.2,66.9,29.93,SSE,148,0.0,0.0,66,0.00,,CLR,0.00,VWS V14.01,2013-08-29 01:22:00,
2013-08-28 20:27:00,79.3,67.0,29.93,SSE,148,0.0,0.0,66,0.00,,CLR,0.00,VWS V14.01,2013-08-29 01:27:00,
2013-08-28 20:32:00,79.4,67.1,29.93,SSE,148,0.0,0.0,66,0.00,,CLR,0.00,VWS V14.01,2013-08-29 01:32:00,
2013-08-28 20:37:00,79.3,67.0,29.93,SE,142,1.0,1.0,66,0.00,,CLR,0.00,VWS V14.01,2013-08-29 01:37:00,
2013-08-28 20:42:00,79.2,67.3,29.93,SE,139,0.0,1.0,67,0.00,,CLR,0.00,VWS V14.01,2013-08-29 01:42:00,
2013-08-28 20:47:00,79.2,67.3,29.93,East,92,1.0,2.0,67,0.00,,CLR,0.00,VWS V14.01,2013-08-29 01:47:00,
2013-08-28 20:52:00,79.2,67.3,29.93,East,90,0.0,2.0,67,0.00,,CLR,0.00,VWS V14.01,2013-08-29 01:52:00,
2013-08-28 20:57:00,78.9,67.0,29.94,East,90,0.0,0.0,67,0.00,,CLR,0.00,VWS V14.01,2013-08-29 01:57:00,
2013-08-28 21:02:00,78.6,67.2,29.94,East,91,0.0,0.0,68,0.00,,CLR,0.00,VWS V14.01,2013-08-29 02:02:00,
2013-08-28 21:07:00,78.4,67.4,29.94,East,90,0.0,0.0,69,0.00,,CLR,0.00,VWS V14.01,2013-08-29 02:07:00,
2013-08-28 21:12:00,78.2,67.2,29.94,ENE,64,2.0,2.0,69,0.00,,CLR,0.00,VWS V14.01,2013-08-29 02:12:00,
2013-08-28 21:17:00,78.1,67.5,29.94,East,84,2.0,3.0,70,0.00,,CLR,0.00,VWS V14.01,2013-08-29 02:17:00,
2013-08-28 21:22:00,78.0,67.4,29.94,ENE,73,1.0,4.0,70,0.00,,CLR,0.00,VWS V14.01,2013-08-29 02:22:00,
2013-08-28 21:27:00,77.9,67.3,29.94,ENE,71,0.0,0.0,70,0.00,,CLR,0.00,VWS V14.01,2013-08-29 02:27:00,
2013-08-28 21:32:00,77.7,67.6,29.94,East,79,2.0,2.0,71,0.00,,SCT120,0.00,VWS V14.01,2013-08-29 02:32:00,
2013-08-28 21:37:00,77.5,67.4,29.94,East,88,0.0,2.0,71,0.00,,SCT120,0.00,VWS V14.01,2013-08-29 02:37:00,
2013-08-28 21:42:00,77.5,67.4,29.94,East,89,1.0,2.0,71,0.00,,SCT120,0.00,VWS V14.01,2013-08-29 02:42:00,
2013-08-28 21:47:00,77.4,67.3,29.94,East,92,0.0,2.0,71,0.00,,SCT120,0.00,VWS V14.01,2013-08-29 02:47:00,
2013-08-28 21:52:00,77.3,67.2,29.94,East,82,1.0,2.0,71,0.00,,SCT120,0.00,VWS V14.01,2013-08-29 02:52:00,
2013-08-28 21:57:00,77.3,67.2,29.94,ENE,74,1.0,1.0,71,0.00,,SCT120,0.00,VWS V14.01,2013-08-29 02:57:00,
2013-08-28 22:02:00,77.2,67.1,29.94,East,85,1.0,3.0,71,0.00,,SCT120,0.00,VWS V14.01,2013-08-29 03:02:00,
2013-08-28 22:07:00,77.0,67.3,29.94,East,88,0.0,3.0,72,0.00,,SCT120,0.00,VWS V14.01,2013-08-29 03:07:00,
2013-08-28 22:12:00,76.7,67.0,29.94,ENE,76,1.0,3.0,72,0.00,,SCT120,0.00,VWS V14.01,2013-08-29 03:12:00,
2013-08-28 22:17:00,76.4,66.7,29.94,East,84,1.0,3.0,72,0.00,,SCT120,0.00,VWS V14.01,2013-08-29 03:17:00,
2013-08-28 22:22:00,76.3,67.0,29.94,East,96,2.0,3.0,73,0.00,,SCT120,0.00,VWS V14.01,2013-08-29 03:22:00,
2013-08-28 22:27:00,76.3,66.6,29.94,East,86,2.0,2.0,72,0.00,,SCT120,0.00,VWS V14.01,2013-08-29 03:27:00,
2013-08-28 22:32:00,76.2,66.9,29.94,East,88,2.0,3.0,73,0.00,,SCT120,0.00,VWS V14.01,2013-08-29 03:32:00,
2013-08-28 22:37:00,76.0,66.7,29.94,East,88,0.0,3.0,73,0.00,,SCT120,0.00,VWS V14.01,2013-08-29 03:37:00,
2013-08-28 22:42:00,75.8,66.5,29.94,ENE,68,0.0,3.0,73,0.00,,SCT120,0.00,VWS V14.01,2013-08-29 03:42:00,
2013-08-28 22:47:00,75.7,66.4,29.94,ENE,77,1.0,3.0,73,0.00,,SCT120,0.00,VWS V14.01,2013-08-29 03:47:00,
2013-08-28 22:52:00,75.5,66.2,29.94,East,96,0.0,3.0,73,0.00,,SCT120,0.00,VWS V14.01,2013-08-29 03:52:00,
2013-08-28 22:57:00,75.3,66.4,29.94,East,96,0.0,0.0,74,0.00,,SCT120,0.00,VWS V14.01,2013-08-29 03:57:00,
2013-08-28 23:01:00,75.2,66.3,29.94,East,96,0.0,0.0,74,0.00,,SCT120,0.00,VWS V14.01,2013-08-29 04:01:00,
2013-08-28 23:06:00,75.0,66.2,29.94,ENE,66,2.0,2.0,74,0.00,,SCT120,0.00,VWS V14.01,2013-08-29 04:06:00,
2013-08-28 23:11:00,74.8,66.0,29.94,East,84,2.0,3.0,74,0.00,,SCT120,0.00,VWS V14.01,2013-08-29 04:11:00,
2013-08-28 23:16:00,74.7,66.3,29.94,ENE,77,0.0,3.0,75,0.00,,SCT120,0.00,VWS V14.01,2013-08-29 04:16:00,
2013-08-28 23:21:00,74.5,66.1,29.94,ENE,78,0.0,3.0,75,0.00,,SCT120,0.00,VWS V14.01,2013-08-29 04:21:00,
2013-08-28 23:26:00,74.2,65.8,29.94,ENE,78,0.0,3.0,75,0.00,,SCT120,0.00,VWS V14.01,2013-08-29 04:26:00,
2013-08-28 23:31:00,74.0,66.0,29.94,East,97,1.0,2.0,76,0.00,,SCT120,0.00,VWS V14.01,2013-08-29 04:31:00,
2013-08-28 23:36:00,74.2,66.2,29.94,ESE,102,1.0,2.0,76,0.00,,SCT120,0.00,VWS V14.01,2013-08-29 04:36:00,
2013-08-28 23:41:00,74.3,66.2,29.94,ENE,71,3.0,4.0,76,0.00,,SCT120,0.00,VWS V14.01,2013-08-29 04:41:00,
2013-08-28 23:46:00,74.2,66.2,29.94,East,99,1.0,4.0,76,0.00,,SCT120,0.00,VWS V14.01,2013-08-29 04:46:00,
2013-08-28 23:51:00,74.1,66.4,29.94,East,99,0.0,4.0,77,0.00,,SCT120,0.00,VWS V14.01,2013-08-29 04:51:00,
2013-08-28 23:56:00,73.9,66.6,29.94,East,98,0.0,4.0,78,0.00,,SCT120,0.00,VWS V14.01,2013-08-29 04:56:00,
2013-08-28 23:57:00,73.9,66.6,29.94,East,99,0.0,4.0,78,0.00,,SCT120,0.00,VWS V14.01,2013-08-29 04:57:00,